This is the latest recevied weather packets stored in our database for station/object K5FEP. If no packets are shown the sender has not sent any weather packets the latest 10 day(s).
| Time | Temp. | Humidity | Pressure | Rain* | Wind** | Luminosity | Snow |
|---|---|---|---|---|---|---|---|
| 1777496456 | 20° C | 83% | 1007.5 hPa | 0 mm | - | 112 W/m² | - |
| 1777496153 | 19.44° C | 82% | 1007.5 hPa | 0 mm | - | 188 W/m² | - |
| 1777495849 | 19.44° C | 84% | 1007.6 hPa | 0 mm | - | 251 W/m² | - |
| 1777495545 | 18.89° C | 86% | 1007.5 hPa | 0 mm | - | 225 W/m² | - |
| 1777495241 | 18.89° C | 88% | 1007.6 hPa | 0 mm | - | 209 W/m² | - |
| 1777494939 | 18.33° C | 88% | 1007.9 hPa | 0 mm | - | 163 W/m² | - |
| 1777494636 | 18.33° C | 88% | 1008 hPa | 0 mm | - | 226 W/m² | - |
| 1777494333 | 18.33° C | 88% | 1008.3 hPa | 0 mm | - | 151 W/m² | - |
| 1777494029 | 18.33° C | 88% | 1008.4 hPa | 0 mm | - | 171 W/m² | - |
| 1777493727 | 17.78° C | 90% | 1008.3 hPa | 0 mm | - | 218 W/m² | - |
| 1777493426 | 17.78° C | 90% | 1008.5 hPa | 0 mm | - | 140 W/m² | - |
| 1777493121 | 17.78° C | 89% | 1008.6 hPa | 0 mm | - | 146 W/m² | - |
| 1777492818 | 17.78° C | 89% | 1008.9 hPa | 0 mm | - | 83 W/m² | - |
| 1777492514 | 17.78° C | 89% | 1008.6 hPa | 0 mm | - | 145 W/m² | - |
| 1777492210 | 17.78° C | 88% | 1009 hPa | 0 mm | - | 89 W/m² | - |
| 1777491908 | 17.78° C | 88% | 1008.9 hPa | 0 mm | - | 88 W/m² | - |
| 1777491604 | 17.78° C | 87% | 1009.1 hPa | 0 mm | - | 96 W/m² | - |
| 1777491302 | 18.33° C | 86% | 1009.3 hPa | 0 mm | - | 68 W/m² | - |
| 1777490998 | 18.33° C | 86% | 1009.3 hPa | 0 mm | - | 86 W/m² | - |
| 1777490694 | 18.33° C | 86% | 1009.7 hPa | 0 mm | - | 87 W/m² | - |
| 1777490390 | 18.89° C | 83% | 1009.5 hPa | 0 mm | - | 75 W/m² | - |
| 1777490087 | 18.89° C | 83% | 1009.7 hPa | 0 mm | - | 136 W/m² | - |
| 1777489784 | 18.89° C | 84% | 1009.6 hPa | 0 mm | - | 384 W/m² | - |
| 1777489482 | 17.78° C | 89% | 1009.3 hPa | 0 mm | - | 1201 W/m² | - |
| 1777489178 | 17.78° C | 89% | 1009.6 hPa | 0 mm | - | 326 W/m² | - |
* Rain latest hour (hover to see other rain measurements)
** Current wind speed in m/s (hover to see current wind gust speed)